createdAt,value
2023-02-13T00:01:25.894Z,41.72
2023-02-13T00:03:52.914Z,41.90
2023-02-13T00:06:19.888Z,42.15
2023-02-13T00:08:48.999Z,37.08
2023-02-13T00:11:20.625Z,34.80
2023-02-13T00:13:49.744Z,35.55
2023-02-13T00:16:16.733Z,34.47
2023-02-13T00:18:46.163Z,36.00
2023-02-13T00:21:18.745Z,34.65
2023-02-13T00:23:48.692Z,34.70
2023-02-13T00:26:18.078Z,32.22
2023-02-13T00:28:48.823Z,36.28
2023-02-13T00:31:19.676Z,32.97
2023-02-13T00:33:49.348Z,36.13
2023-02-13T00:36:21.201Z,37.25
2023-02-13T00:38:48.355Z,34.22
2023-02-13T00:41:18.063Z,35.78
2023-02-13T00:43:49.867Z,35.40
2023-02-13T00:46:21.628Z,32.08
2023-02-13T00:48:51.088Z,29.88
2023-02-13T00:51:18.067Z,35.63
2023-02-13T00:53:45.128Z,31.83
2023-02-13T00:56:12.120Z,31.63
2023-02-13T00:58:39.410Z,29.83
2023-02-13T01:01:06.535Z,30.90
2023-02-13T01:03:37.139Z,30.10
2023-02-13T01:06:06.708Z,34.05
2023-02-13T01:08:40.825Z,30.42
2023-02-13T01:11:08.962Z,29.42
2023-02-13T01:13:36.231Z,27.60
2023-02-13T01:16:10.397Z,26.98
2023-02-13T01:18:37.444Z,27.35
2023-02-13T01:21:08.345Z,28.13
2023-02-13T01:23:40.768Z,26.85
2023-02-13T01:26:21.673Z,25.85
2023-02-13T01:28:55.502Z,24.73
2023-02-13T01:31:22.609Z,27.42
2023-02-13T01:33:55.618Z,25.33
2023-02-13T01:36:22.638Z,27.10
2023-02-13T01:38:54.764Z,25.42
2023-02-13T01:41:24.952Z,27.15
2023-02-13T01:43:56.435Z,25.80
2023-02-13T01:46:38.809Z,23.48
2023-02-13T01:49:11.792Z,26.98
2023-02-13T01:51:43.378Z,26.05
2023-02-13T01:54:16.149Z,27.92
2023-02-13T01:56:47.251Z,27.73
2023-02-13T01:59:21.169Z,27.50
2023-02-13T02:01:48.283Z,23.85
2023-02-13T02:04:18.859Z,25.92
2023-02-13T02:06:57.325Z,26.75
2023-02-13T02:09:32.741Z,24.90
2023-02-13T02:12:01.818Z,25.92
2023-02-13T02:14:33.423Z,25.00
2023-02-13T02:17:05.372Z,25.08
2023-02-13T02:20:10.747Z,27.33
2023-02-13T02:22:56.596Z,29.10
2023-02-13T02:25:57.457Z,28.17
2023-02-13T02:29:01.821Z,22.20
2023-02-13T02:31:43.600Z,28.02
2023-02-13T02:34:37.915Z,27.08
2023-02-13T02:37:33.251Z,28.38
2023-02-13T02:40:14.137Z,27.25
2023-02-13T02:42:53.104Z,24.35
2023-02-13T02:45:31.363Z,27.48
2023-02-13T02:48:37.321Z,25.10
2023-02-13T02:51:09.018Z,28.02
2023-02-13T02:54:28.317Z,27.17
2023-02-13T02:57:03.864Z,24.13
2023-02-13T02:59:56.893Z,27.77
2023-02-13T03:02:42.246Z,25.55
2023-02-13T03:05:39.759Z,23.95
2023-02-13T03:08:09.092Z,29.30
2023-02-13T03:10:55.759Z,24.30
2023-02-13T03:13:47.149Z,27.90
2023-02-13T03:16:36.121Z,25.95
2023-02-13T03:19:23.704Z,26.08
2023-02-13T03:22:20.071Z,24.15
2023-02-13T03:25:18.648Z,26.75
2023-02-13T03:28:34.524Z,29.27
2023-02-13T03:31:11.617Z,28.10
2023-02-13T03:34:01.308Z,25.80
2023-02-13T03:37:17.547Z,23.10
2023-02-13T03:40:09.794Z,27.73
2023-02-13T03:43:11.101Z,26.35
2023-02-13T03:45:57.200Z,26.40
2023-02-13T03:48:51.300Z,24.75
2023-02-13T03:51:28.023Z,24.08
2023-02-13T03:54:00.898Z,27.58
2023-02-13T03:56:46.183Z,29.67
2023-02-13T03:59:25.703Z,27.48
2023-02-13T04:02:15.960Z,26.55
2023-02-13T04:04:42.912Z,22.60
2023-02-13T04:07:29.340Z,26.63
2023-02-13T04:10:10.455Z,23.48
2023-02-13T04:12:39.607Z,28.02
2023-02-13T04:15:48.338Z,30.40
2023-02-13T04:18:25.086Z,24.45
2023-02-13T04:20:56.847Z,23.48
2023-02-13T04:23:28.685Z,25.17
2023-02-13T04:25:55.645Z,24.23
2023-02-13T04:28:22.646Z,26.67
2023-02-13T04:30:55.218Z,24.95
2023-02-13T04:33:26.862Z,23.63
2023-02-13T04:36:00.759Z,27.67
2023-02-13T04:38:27.702Z,24.60
2023-02-13T04:40:57.021Z,25.13
2023-02-13T04:43:26.210Z,29.42
2023-02-13T04:45:53.189Z,29.73
2023-02-13T04:48:24.746Z,26.80
2023-02-13T04:50:56.539Z,31.25
2023-02-13T04:53:26.114Z,25.58
2023-02-13T04:56:01.034Z,28.45
2023-02-13T04:58:27.975Z,28.02
2023-02-13T05:00:55.178Z,28.73
2023-02-13T05:03:24.646Z,24.25
2023-02-13T05:05:59.102Z,23.77
2023-02-13T05:08:29.089Z,26.67
2023-02-13T05:10:59.313Z,23.17
2023-02-13T05:13:31.139Z,24.33
2023-02-13T05:15:58.223Z,28.90
2023-02-13T05:18:25.229Z,23.30
2023-02-13T05:21:12.469Z,28.23
2023-02-13T05:23:39.421Z,23.75
2023-02-13T05:26:08.854Z,29.80
2023-02-13T05:28:54.220Z,26.23
2023-02-13T05:31:26.661Z,26.58
2023-02-13T05:33:56.165Z,28.98
2023-02-13T05:36:25.223Z,27.25
2023-02-13T05:38:57.498Z,30.50
2023-02-13T05:41:26.990Z,26.80
2023-02-13T05:43:56.166Z,29.50
2023-02-13T05:46:25.271Z,30.55
2023-02-13T05:48:54.605Z,30.70
2023-02-13T05:51:26.785Z,31.05
2023-02-13T05:53:56.052Z,30.13
2023-02-13T05:56:27.457Z,36.55
2023-02-13T05:58:56.807Z,29.77
2023-02-13T06:01:26.278Z,28.15
2023-02-13T06:03:57.758Z,28.52
2023-02-13T06:06:27.770Z,24.50
2023-02-13T06:08:54.803Z,26.70
2023-02-13T06:11:21.750Z,28.45
2023-02-13T06:13:50.912Z,22.30
2023-02-13T06:16:22.721Z,27.05
2023-02-13T06:18:52.075Z,26.98
2023-02-13T06:21:22.538Z,26.25
2023-02-13T06:23:51.992Z,28.15
2023-02-13T06:26:21.193Z,28.65
2023-02-13T06:28:48.140Z,28.15
2023-02-13T06:31:15.178Z,30.90
2023-02-13T06:33:42.124Z,36.38
2023-02-13T06:36:11.285Z,27.88
2023-02-13T06:38:38.209Z,33.75
2023-02-13T06:41:07.403Z,27.38
2023-02-13T06:43:34.470Z,29.92
2023-02-13T06:46:09.888Z,25.83
2023-02-13T06:48:36.915Z,32.60
2023-02-13T06:51:03.953Z,27.80
2023-02-13T06:53:35.502Z,30.38
2023-02-13T06:56:08.221Z,32.42
2023-02-13T06:58:35.249Z,28.50
2023-02-13T07:01:04.655Z,27.00
2023-02-13T07:03:31.642Z,28.30
2023-02-13T07:06:03.156Z,30.67
2023-02-13T07:08:30.818Z,30.08
2023-02-13T07:10:57.966Z,30.42
2023-02-13T07:13:25.074Z,35.70
2023-02-13T07:15:52.131Z,33.90
2023-02-13T07:18:21.256Z,31.15
2023-02-13T07:20:48.197Z,29.92
2023-02-13T07:23:17.321Z,34.13
2023-02-13T07:25:46.608Z,30.92
2023-02-13T07:28:15.761Z,37.80
2023-02-13T07:30:47.482Z,34.63
2023-02-13T07:33:16.876Z,33.97
2023-02-13T07:35:47.576Z,33.75
2023-02-13T07:38:14.639Z,32.45
2023-02-13T07:40:43.833Z,36.33
2023-02-13T07:43:12.963Z,33.85
2023-02-13T07:45:43.340Z,35.17
2023-02-13T07:48:14.893Z,38.53
2023-02-13T07:50:46.796Z,37.42
2023-02-13T07:53:13.750Z,42.40
2023-02-13T07:55:43.190Z,31.85
2023-02-13T07:58:12.571Z,40.70
2023-02-13T08:00:39.527Z,41.85
2023-02-13T08:03:11.610Z,33.33
2023-02-13T08:05:38.866Z,40.42
2023-02-13T08:08:10.543Z,45.28
2023-02-13T08:10:56.113Z,42.95
2023-02-13T08:13:25.422Z,40.65
2023-02-13T08:15:54.883Z,40.70
2023-02-13T08:18:26.549Z,42.05
2023-02-13T08:20:53.474Z,39.30
2023-02-13T08:23:25.131Z,43.30
2023-02-13T08:25:53.553Z,40.22
2023-02-13T08:28:24.227Z,37.30
2023-02-13T08:30:51.278Z,36.65
2023-02-13T08:33:18.219Z,39.55
2023-02-13T08:35:47.457Z,40.38
2023-02-13T08:38:17.425Z,37.42
2023-02-13T08:40:44.384Z,39.25
2023-02-13T08:43:13.811Z,37.72
2023-02-13T08:45:40.889Z,42.70
2023-02-13T08:48:10.196Z,39.95
2023-02-13T08:50:42.548Z,41.60
2023-02-13T08:53:09.480Z,40.17
2023-02-13T08:55:38.907Z,44.15
2023-02-13T08:58:06.229Z,41.47
2023-02-13T09:00:33.220Z,45.80
2023-02-13T09:03:03.241Z,42.53
2023-02-13T09:05:31.686Z,46.83
2023-02-13T09:08:03.132Z,40.40
2023-02-13T09:10:32.763Z,39.67
2023-02-13T09:13:02.237Z,36.10
2023-02-13T09:15:29.443Z,40.35
2023-02-13T09:18:00.853Z,36.15
2023-02-13T09:20:30.026Z,35.72
2023-02-13T09:22:59.578Z,32.85
2023-02-13T09:25:26.757Z,35.42
2023-02-13T09:27:53.801Z,34.53
2023-02-13T09:30:24.038Z,35.45
2023-02-13T09:32:52.166Z,31.20
2023-02-13T09:35:19.923Z,31.42
2023-02-13T09:37:46.977Z,33.30
2023-02-13T09:40:24.001Z,32.33
2023-02-13T09:42:53.518Z,32.38
2023-02-13T09:45:21.149Z,33.08
2023-02-13T09:47:50.319Z,30.33
2023-02-13T09:50:19.469Z,33.80
2023-02-13T09:52:46.695Z,29.80
2023-02-13T09:55:21.900Z,28.52
2023-02-13T09:58:16.408Z,29.50
2023-02-13T10:00:50.980Z,30.17
2023-02-13T10:03:29.214Z,28.35
2023-02-13T10:05:59.611Z,28.73
2023-02-13T10:08:46.001Z,26.88
2023-02-13T10:11:28.052Z,27.33
2023-02-13T10:14:02.213Z,23.80
2023-02-13T10:16:41.200Z,29.88
2023-02-13T10:19:19.033Z,28.65
2023-02-13T10:21:56.189Z,28.35
2023-02-13T10:24:36.606Z,25.30
2023-02-13T10:27:11.457Z,22.95
2023-02-13T10:30:05.666Z,21.48
2023-02-13T10:32:44.045Z,24.70
2023-02-13T10:35:31.426Z,23.65
2023-02-13T10:38:01.346Z,24.40
2023-02-13T10:40:32.600Z,21.77
2023-02-13T10:43:09.493Z,23.40
2023-02-13T10:45:52.337Z,20.65
2023-02-13T10:48:38.262Z,22.77
2023-02-13T10:51:26.682Z,24.23
2023-02-13T10:54:17.540Z,22.17
2023-02-13T10:56:52.041Z,21.77
2023-02-13T10:59:34.528Z,20.27
2023-02-13T11:02:26.864Z,20.38
2023-02-13T11:05:00.528Z,20.98
2023-02-13T11:07:30.496Z,21.95
2023-02-13T11:10:00.311Z,21.95
2023-02-13T11:12:28.534Z,22.60
2023-02-13T11:15:00.447Z,19.88
2023-02-13T11:17:31.636Z,22.58
2023-02-13T11:20:01.563Z,22.88
2023-02-13T11:22:33.016Z,22.42
2023-02-13T11:25:03.015Z,24.25
2023-02-13T11:27:37.101Z,21.40
2023-02-13T11:30:37.975Z,23.45
2023-02-13T11:33:24.835Z,22.50
2023-02-13T11:36:14.014Z,23.25
2023-02-13T11:38:40.993Z,23.55
2023-02-13T11:41:14.848Z,22.48
2023-02-13T11:43:48.784Z,24.05
2023-02-13T11:46:19.621Z,26.27
2023-02-13T11:49:02.664Z,24.80
2023-02-13T11:51:42.644Z,24.73
2023-02-13T11:54:24.672Z,27.85
2023-02-13T11:57:07.799Z,25.15
2023-02-13T12:02:23.078Z,26.83
2023-02-13T12:04:51.920Z,29.05
2023-02-13T12:07:31.104Z,26.55
2023-02-13T12:10:24.110Z,27.10
2023-02-13T12:13:07.528Z,25.45
2023-02-13T12:15:37.172Z,27.95
2023-02-13T12:18:27.619Z,25.88
2023-02-13T12:21:35.779Z,24.30
2023-02-13T12:24:36.238Z,26.00
2023-02-13T12:27:37.164Z,24.17
2023-02-13T12:30:16.874Z,24.63
2023-02-13T12:32:55.214Z,24.00
2023-02-13T12:35:40.278Z,23.17
2023-02-13T12:38:32.569Z,23.67
2023-02-13T12:41:22.427Z,24.77
2023-02-13T12:43:54.392Z,23.98
2023-02-13T12:46:48.134Z,21.13
2023-02-13T12:49:38.431Z,23.65
2023-02-13T12:52:27.782Z,26.75
2023-02-13T12:55:35.433Z,24.95
2023-02-13T12:58:16.925Z,21.25
2023-02-13T13:00:46.100Z,19.88
2023-02-13T13:03:41.340Z,20.63
2023-02-13T13:06:13.570Z,21.67
2023-02-13T13:08:43.351Z,20.55
2023-02-13T13:11:38.898Z,23.50
2023-02-13T13:14:14.135Z,22.83
2023-02-13T13:16:43.027Z,23.75
2023-02-13T13:19:30.895Z,22.67
2023-02-13T13:22:03.367Z,21.92
2023-02-13T13:24:47.347Z,22.30
2023-02-13T13:27:24.099Z,23.25
2023-02-13T13:30:15.997Z,23.83
2023-02-13T13:32:45.044Z,23.45
2023-02-13T13:35:18.008Z,24.85
2023-02-13T13:38:02.597Z,22.10
2023-02-13T13:41:14.195Z,22.83
2023-02-13T13:44:03.148Z,22.50
2023-02-13T13:46:55.432Z,22.63
2023-02-13T13:49:46.390Z,20.90
2023-02-13T13:52:33.055Z,21.73
2023-02-13T13:55:02.516Z,20.17
2023-02-13T13:57:41.773Z,24.20
2023-02-13T14:00:08.763Z,24.33
2023-02-13T14:02:51.650Z,24.27
2023-02-13T14:05:29.899Z,25.75
2023-02-13T14:08:23.797Z,22.42
2023-02-13T14:11:00.785Z,24.38
2023-02-13T14:13:39.551Z,23.80
2023-02-13T14:16:11.944Z,20.35
2023-02-13T14:18:47.892Z,21.92
2023-02-13T14:21:24.991Z,24.55
2023-02-13T14:23:57.390Z,23.70
2023-02-13T14:26:44.336Z,22.90
2023-02-13T14:29:11.265Z,25.48
2023-02-13T14:31:56.608Z,27.67
2023-02-13T14:34:30.656Z,23.00
2023-02-13T14:37:22.994Z,26.73
2023-02-13T14:40:12.084Z,27.92
2023-02-13T14:42:39.403Z,25.48
2023-02-13T14:45:16.937Z,27.45
2023-02-13T14:47:56.772Z,24.38
2023-02-13T14:50:30.019Z,26.90
2023-02-13T14:52:59.189Z,24.33
2023-02-13T14:55:34.087Z,25.10
2023-02-13T14:58:14.663Z,27.67
2023-02-13T15:00:44.457Z,25.25
2023-02-13T15:03:40.418Z,27.08
2023-02-13T15:06:21.018Z,28.45
2023-02-13T15:08:51.229Z,23.73
2023-02-13T15:11:47.754Z,24.08
2023-02-13T15:14:20.788Z,26.30
2023-02-13T15:16:52.670Z,25.48
2023-02-13T15:19:22.981Z,24.45
2023-02-13T15:22:00.824Z,24.90
2023-02-13T15:24:30.510Z,23.38
2023-02-13T15:27:08.197Z,24.38
2023-02-13T15:29:49.263Z,22.92
2023-02-13T15:32:29.890Z,24.60
2023-02-13T15:35:00.045Z,20.02
2023-02-13T15:37:32.567Z,20.80
2023-02-13T15:40:17.204Z,24.85
2023-02-13T15:42:44.233Z,19.40
2023-02-13T15:45:14.841Z,20.92
2023-02-13T15:47:47.426Z,19.65
2023-02-13T15:50:17.869Z,26.95
2023-02-13T15:52:44.830Z,27.73
2023-02-13T15:55:28.347Z,29.05
2023-02-13T15:58:03.233Z,27.55
2023-02-13T16:00:39.612Z,29.75
2023-02-13T16:03:13.095Z,29.73
2023-02-13T16:05:41.531Z,27.95
2023-02-13T16:08:26.637Z,30.65
2023-02-13T16:11:16.291Z,29.45
2023-02-13T16:14:03.682Z,25.50
2023-02-13T16:16:33.169Z,27.15
2023-02-13T16:19:02.291Z,27.63
2023-02-13T16:21:34.520Z,28.63
2023-02-13T16:24:06.705Z,25.65
2023-02-13T16:26:42.518Z,30.70
2023-02-13T16:29:18.490Z,29.50
2023-02-13T16:31:50.643Z,26.80
2023-02-13T16:34:29.501Z,26.70
2023-02-13T16:36:59.485Z,25.33
2023-02-13T16:39:32.720Z,28.30
2023-02-13T16:42:04.676Z,29.10
2023-02-13T16:44:38.765Z,26.63
2023-02-13T16:47:23.101Z,26.25
2023-02-13T16:49:55.992Z,23.65
2023-02-13T16:52:25.977Z,25.30
2023-02-13T16:54:59.911Z,24.92
2023-02-13T16:57:31.527Z,23.95
2023-02-13T17:00:19.192Z,23.00
2023-02-13T17:02:52.929Z,25.77
2023-02-13T17:05:28.712Z,26.60
2023-02-13T17:08:00.457Z,25.48
2023-02-13T17:10:36.213Z,27.45
2023-02-13T17:13:09.160Z,27.85
2023-02-13T17:15:38.500Z,31.25
2023-02-13T17:18:05.498Z,29.83
2023-02-13T17:20:33.386Z,26.88
2023-02-13T17:23:07.163Z,28.58
2023-02-13T17:25:35.746Z,27.00
2023-02-13T17:28:26.832Z,27.20
2023-02-13T17:31:00.158Z,29.70
2023-02-13T17:33:29.195Z,28.05
2023-02-13T17:36:00.721Z,26.92
2023-02-13T17:38:29.891Z,28.05
2023-02-13T17:40:57.164Z,29.10
2023-02-13T17:43:30.097Z,26.92
2023-02-13T17:45:58.836Z,30.35
2023-02-13T17:48:31.317Z,31.77
2023-02-13T17:51:03.096Z,28.45
2023-02-13T17:53:33.190Z,28.40
2023-02-13T17:56:00.116Z,28.55
2023-02-13T17:58:31.518Z,28.80
2023-02-13T18:00:58.953Z,29.83
2023-02-13T18:03:26.113Z,31.58
2023-02-13T18:05:55.620Z,26.58
2023-02-13T18:08:22.668Z,30.38
2023-02-13T18:10:49.723Z,30.33
2023-02-13T18:13:19.098Z,29.27
2023-02-13T18:15:46.154Z,30.63
2023-02-13T18:18:16.106Z,36.80
2023-02-13T18:20:45.946Z,30.08
2023-02-13T18:23:15.340Z,32.60
2023-02-13T18:25:47.686Z,33.97
2023-02-13T18:28:19.261Z,33.65
2023-02-13T18:30:48.758Z,34.97
2023-02-13T18:33:17.923Z,33.33
2023-02-13T18:35:49.484Z,34.03
2023-02-13T18:38:18.543Z,35.22
2023-02-13T18:40:45.500Z,34.50
2023-02-13T18:43:17.700Z,29.30
2023-02-13T18:45:49.584Z,34.22
2023-02-13T18:48:16.608Z,33.67
2023-02-13T18:50:45.765Z,33.80
2023-02-13T18:53:17.408Z,33.78
2023-02-13T18:55:48.869Z,31.27
2023-02-13T18:58:17.998Z,29.20
2023-02-13T19:00:49.937Z,33.35
2023-02-13T19:03:21.671Z,36.50
2023-02-13T19:05:50.825Z,31.17
2023-02-13T19:08:22.496Z,32.75
2023-02-13T19:10:49.424Z,32.53
2023-02-13T19:13:18.613Z,33.17
2023-02-13T19:15:45.542Z,35.35
2023-02-13T19:18:12.566Z,31.83
2023-02-13T19:20:41.306Z,34.42
2023-02-13T19:23:11.262Z,33.30
2023-02-13T19:25:39.392Z,35.97
2023-02-13T19:28:11.239Z,36.17
2023-02-13T19:30:40.659Z,36.25
2023-02-13T19:33:07.642Z,32.55
2023-02-13T19:35:37.642Z,30.70
2023-02-13T19:38:04.650Z,34.03
2023-02-13T19:40:36.464Z,33.72
2023-02-13T19:43:03.398Z,35.53
2023-02-13T19:45:32.734Z,34.45
2023-02-13T19:48:02.033Z,31.77
2023-02-13T19:50:31.063Z,32.08
2023-02-13T19:52:57.987Z,32.45
2023-02-13T19:55:29.776Z,31.27
2023-02-13T19:57:59.740Z,32.00
2023-02-13T20:00:26.733Z,37.00
2023-02-13T20:02:55.275Z,33.65
2023-02-13T20:05:22.300Z,33.97
2023-02-13T20:07:49.281Z,33.55
2023-02-13T20:10:20.805Z,35.58
2023-02-13T20:12:53.735Z,31.88
2023-02-13T20:15:23.996Z,29.75
2023-02-13T20:17:53.321Z,29.13
2023-02-13T20:20:22.601Z,29.73
2023-02-13T20:22:54.271Z,31.30
2023-02-13T20:25:22.157Z,29.90
2023-02-13T20:27:49.087Z,33.35
2023-02-13T20:30:16.269Z,30.35
2023-02-13T20:32:45.587Z,32.70
2023-02-13T20:35:17.721Z,31.23
2023-02-13T20:37:45.297Z,32.10
2023-02-13T20:40:15.308Z,37.42
2023-02-13T20:42:42.353Z,33.85
2023-02-13T20:45:17.022Z,33.42
2023-02-13T20:47:46.324Z,31.08
2023-02-13T20:50:16.504Z,36.22
2023-02-13T20:52:43.458Z,37.63
2023-02-13T20:55:10.412Z,35.88
2023-02-13T20:57:37.423Z,34.50
2023-02-13T21:00:11.959Z,35.75
2023-02-13T21:02:45.665Z,30.77
2023-02-13T21:05:17.439Z,32.33
2023-02-13T21:07:44.433Z,32.65
2023-02-13T21:10:11.741Z,34.15
2023-02-13T21:12:38.779Z,35.53
2023-02-13T21:15:05.900Z,34.83
2023-02-13T21:17:35.278Z,37.58
2023-02-13T21:20:05.620Z,34.08
2023-02-13T21:22:32.599Z,36.90
2023-02-13T21:25:02.579Z,38.40
2023-02-13T21:27:31.661Z,35.47
2023-02-13T21:30:00.845Z,35.65
2023-02-13T21:32:30.009Z,33.78
2023-02-13T21:34:56.971Z,38.97
2023-02-13T21:37:26.053Z,38.97
2023-02-13T21:39:55.285Z,36.60
2023-02-13T21:42:22.218Z,35.58
2023-02-13T21:44:49.177Z,39.90
2023-02-13T21:47:19.456Z,39.88
2023-02-13T21:49:49.440Z,37.22
2023-02-13T21:52:18.955Z,38.25
2023-02-13T21:54:47.959Z,31.33
2023-02-13T21:57:17.310Z,40.83
2023-02-13T21:59:46.703Z,38.88
2023-02-13T22:02:18.361Z,35.97
2023-02-13T22:04:50.357Z,37.72
2023-02-13T22:07:19.757Z,34.72
2023-02-13T22:09:50.350Z,36.78
2023-02-13T22:12:17.338Z,32.97
2023-02-13T22:14:44.276Z,40.97
2023-02-13T22:17:11.283Z,38.60
2023-02-13T22:19:38.301Z,41.45
2023-02-13T22:22:07.451Z,39.47
2023-02-13T22:24:39.742Z,41.80
2023-02-13T22:27:08.816Z,49.30
2023-02-13T22:29:40.735Z,44.72
2023-02-13T22:32:07.778Z,40.60
2023-02-13T22:34:39.369Z,45.65
2023-02-13T22:37:06.554Z,47.60
2023-02-13T22:39:36.576Z,50.08
2023-02-13T22:42:04.702Z,43.97
2023-02-13T22:44:33.885Z,48.33
2023-02-13T22:47:00.814Z,52.28
2023-02-13T22:49:27.730Z,46.28
2023-02-13T22:51:54.711Z,47.67
2023-02-13T22:54:21.666Z,48.10
2023-02-13T22:56:50.835Z,46.63
2023-02-13T22:59:20.047Z,47.50
2023-02-13T23:01:51.408Z,42.88
2023-02-13T23:04:18.376Z,47.10
2023-02-13T23:06:45.363Z,47.15
2023-02-13T23:09:19.440Z,48.65
2023-02-13T23:12:07.705Z,46.63
2023-02-13T23:14:34.632Z,40.50
2023-02-13T23:17:20.066Z,43.35
2023-02-13T23:19:49.546Z,42.90
2023-02-13T23:22:18.995Z,46.03
2023-02-13T23:24:45.920Z,43.78
2023-02-13T23:27:16.009Z,45.40
2023-02-13T23:29:45.146Z,44.78
2023-02-13T23:32:12.215Z,51.05
2023-02-13T23:34:39.215Z,41.75
2023-02-13T23:37:08.608Z,42.72
2023-02-13T23:39:39.951Z,44.30
2023-02-13T23:42:06.885Z,46.78
2023-02-13T23:44:36.099Z,43.35
2023-02-13T23:47:03.028Z,44.38
2023-02-13T23:49:32.489Z,43.53
2023-02-13T23:52:01.696Z,46.88
2023-02-13T23:54:31.161Z,45.88
2023-02-13T23:57:00.650Z,46.38
2023-02-13T23:59:27.690Z,47.60
